Huvudsida
METAR-TAF:

METAR-TAF

Flygplatser :

Pekings internationella flygplats

Peking, Kina

latitud: 39-56N, longitud: 116-17E, höjd: 55 m

Aktuellt väderrapport

Denna rapport gjordes för 23 minuter sedan, klockan 23:30 UTC
Vind 4 kt från nordost, varierande mellan nord och ost
Temperatur 28°C
Fuktighet 84%
Tryck 1007 hPa
Sikt: 4000 m
fuktdis

METAR: ZBAA 222330Z 04002MPS 360V100 4000 BR NSC 28/25 Q1007 NOSIG

Tid: 07:53 (23:53 UTC)

Väderprognos

Denna rapport gjordes för 2 timmar och 23 minuter sedan, klockan 21:30 UTC
Prognos gäller från 23 kl. 00 UTC till 23 kl. 24 UTC
Vind 8 kt från ost/sydost
Sikt: 5000 m
fuktdis
Blir
från 23 kl. 17 UTC till 23 kl. 18 UTC
Sikt: 2700 m
lätt regn, fuktdis

TAF: ZBAA 222130Z 2300/2324 12004MPS 5000 BR NSC TX33/2306Z TN24/2321Z BECMG 2317/2318 2700 -RA BR

Aktuella väderrapporter och prognoser från 4000 flygplatser (METAR- och TAF-rapporter).

De tillgängliga stationerna syns som gula och röda prickar på kartan.

För musen över prickarna för att se namnen på stationerna.

Klicka sedan för att få väderrapporter och prognoser.

För att ändra kartan: Klicka på de gröna knapparna med ett svart kors på för att zooma in; den gröna knappen med ett streck på för att zooma ut; eller på de gröna pilarna för angränsande kartor.


METAR-TAF: